createdAt,value
2018-03-29T00:01:51.374Z,14.07
2018-03-29T00:04:18.906Z,13.00
2018-03-29T00:06:46.462Z,13.70
2018-03-29T00:09:14.282Z,12.10
2018-03-29T00:11:42.602Z,14.47
2018-03-29T00:14:10.134Z,13.17
2018-03-29T00:16:37.679Z,13.47
2018-03-29T00:19:05.218Z,11.83
2018-03-29T00:21:33.541Z,13.70
2018-03-29T00:24:01.066Z,12.07
2018-03-29T00:26:29.382Z,12.40
2018-03-29T00:28:56.914Z,17.50
2018-03-29T00:31:24.463Z,12.87
2018-03-29T00:33:52.758Z,12.93
2018-03-29T00:36:20.311Z,12.37
2018-03-29T00:38:47.840Z,12.43
2018-03-29T00:41:15.371Z,13.40
2018-03-29T00:43:42.926Z,13.60
2018-03-29T00:46:10.455Z,13.87
2018-03-29T00:48:38.006Z,14.73
2018-03-29T00:51:05.546Z,12.80
2018-03-29T00:53:45.051Z,17.23
2018-03-29T00:56:12.792Z,13.70
2018-03-29T00:58:40.349Z,12.80
2018-03-29T01:01:07.893Z,17.00
2018-03-29T01:03:35.453Z,14.13
2018-03-29T01:06:02.996Z,13.67
2018-03-29T01:08:33.290Z,17.13
2018-03-29T01:11:00.817Z,15.27
2018-03-29T01:13:28.377Z,13.00
2018-03-29T01:15:55.909Z,15.70
2018-03-29T01:18:24.221Z,14.90
2018-03-29T01:20:51.754Z,17.83
2018-03-29T01:23:19.316Z,17.70
2018-03-29T01:25:46.850Z,19.97
2018-03-29T01:28:15.179Z,16.27
2018-03-29T01:30:42.707Z,17.53
2018-03-29T01:33:10.451Z,19.33
2018-03-29T01:35:38.754Z,17.40
2018-03-29T01:38:06.277Z,19.37
2018-03-29T01:40:33.834Z,19.60
2018-03-29T01:43:01.364Z,22.43
2018-03-29T01:45:28.930Z,21.80
2018-03-29T01:47:56.464Z,20.73
2018-03-29T01:50:24.024Z,22.40
2018-03-29T01:52:51.558Z,20.17
2018-03-29T01:55:19.883Z,20.97
2018-03-29T01:57:47.422Z,22.20
2018-03-29T02:00:14.978Z,23.47
2018-03-29T02:02:42.506Z,21.47
2018-03-29T02:05:10.830Z,20.80
2018-03-29T02:07:38.355Z,20.67
2018-03-29T02:10:05.905Z,18.77
2018-03-29T02:12:34.207Z,23.57
2018-03-29T02:15:01.766Z,23.33
2018-03-29T02:17:29.314Z,23.83
2018-03-29T02:19:56.862Z,23.20
2018-03-29T02:22:25.164Z,24.93
2018-03-29T02:24:52.723Z,23.27
2018-03-29T02:27:20.252Z,20.37
2018-03-29T02:29:48.599Z,20.53
2018-03-29T02:32:16.134Z,23.47
2018-03-29T02:34:43.672Z,24.90
2018-03-29T02:37:11.239Z,25.43
2018-03-29T02:39:38.765Z,24.27
2018-03-29T02:42:07.090Z,24.00
2018-03-29T02:44:34.630Z,22.90
2018-03-29T02:47:02.194Z,20.20
2018-03-29T02:49:29.725Z,22.00
2018-03-29T02:51:58.050Z,22.77
2018-03-29T02:54:25.579Z,23.83
2018-03-29T02:56:53.898Z,23.67
2018-03-29T02:59:21.443Z,20.97
2018-03-29T03:01:48.998Z,20.63
2018-03-29T03:04:16.526Z,20.50
2018-03-29T03:06:44.859Z,19.60
2018-03-29T03:09:12.391Z,21.60
2018-03-29T03:11:39.946Z,20.03
2018-03-29T03:14:07.482Z,19.43
2018-03-29T03:16:35.811Z,22.70
2018-03-29T03:19:03.342Z,19.00
2018-03-29T03:21:30.897Z,16.50
2018-03-29T03:23:58.433Z,16.70
2018-03-29T03:26:26.731Z,15.97
2018-03-29T03:28:54.290Z,19.47
2018-03-29T03:31:21.827Z,17.13
2018-03-29T03:33:50.151Z,18.47
2018-03-29T03:36:17.686Z,18.00
2018-03-29T03:38:45.237Z,18.27
2018-03-29T03:41:13.530Z,24.20
2018-03-29T03:43:41.087Z,21.77
2018-03-29T03:46:08.619Z,20.97
2018-03-29T03:48:36.943Z,20.80
2018-03-29T03:51:04.482Z,15.43
2018-03-29T03:53:32.042Z,17.37
2018-03-29T03:55:59.570Z,19.13
2018-03-29T03:58:27.126Z,19.60
2018-03-29T04:00:54.664Z,24.90
2018-03-29T04:03:22.226Z,18.00
2018-03-29T04:05:50.527Z,19.80
2018-03-29T04:08:18.058Z,17.80
2018-03-29T04:10:45.617Z,18.37
2018-03-29T04:13:13.143Z,18.47
2018-03-29T04:15:40.695Z,19.57
2018-03-29T04:18:08.234Z,18.87
2018-03-29T04:20:36.566Z,18.43
2018-03-29T04:23:04.099Z,18.63
2018-03-29T04:25:31.662Z,19.17
2018-03-29T04:27:59.186Z,22.60
2018-03-29T04:30:26.742Z,20.73
2018-03-29T04:32:54.272Z,18.10
2018-03-29T04:35:21.826Z,22.43
2018-03-29T04:37:49.359Z,19.87
2018-03-29T04:40:16.922Z,20.00
2018-03-29T04:42:44.454Z,20.77
2018-03-29T04:45:12.913Z,22.50
2018-03-29T04:47:40.450Z,22.97
2018-03-29T04:50:08.027Z,19.67
2018-03-29T04:52:35.602Z,19.23
2018-03-29T04:55:03.237Z,17.60
2018-03-29T04:57:30.790Z,23.20
2018-03-29T04:59:58.335Z,20.80
2018-03-29T05:02:25.887Z,15.80
2018-03-29T05:04:53.728Z,17.40
2018-03-29T05:07:21.323Z,17.43
2018-03-29T05:09:48.860Z,17.83
2018-03-29T05:12:16.422Z,17.70
2018-03-29T05:14:43.955Z,18.37
2018-03-29T05:17:12.283Z,23.23
2018-03-29T05:19:39.819Z,19.20
2018-03-29T05:22:07.482Z,18.93
2018-03-29T05:24:35.019Z,17.20
2018-03-29T05:27:03.351Z,23.13
2018-03-29T05:29:30.877Z,21.50
2018-03-29T05:31:58.435Z,25.43
2018-03-29T05:34:25.966Z,22.30
2018-03-29T05:36:54.291Z,22.60
2018-03-29T05:39:21.815Z,21.10
2018-03-29T05:41:50.139Z,21.63
2018-03-29T05:44:17.670Z,19.60
2018-03-29T05:46:45.232Z,20.50
2018-03-29T05:49:12.762Z,20.80
2018-03-29T05:51:41.068Z,23.60
2018-03-29T05:54:08.625Z,21.90
2018-03-29T05:56:36.155Z,19.37
2018-03-29T05:59:03.711Z,19.07
2018-03-29T06:01:31.251Z,19.97
2018-03-29T06:03:58.822Z,22.00
2018-03-29T06:06:26.361Z,19.07
2018-03-29T06:08:53.922Z,20.60
2018-03-29T06:11:21.455Z,19.47
2018-03-29T06:13:54.790Z,21.77
2018-03-29T06:16:22.321Z,17.83
2018-03-29T06:18:49.867Z,19.83
2018-03-29T06:21:17.403Z,17.10
2018-03-29T06:23:45.719Z,18.17
2018-03-29T06:26:13.255Z,18.97
2018-03-29T06:28:40.811Z,18.87
2018-03-29T06:31:08.364Z,18.73
2018-03-29T06:54:34.452Z,20.60
2018-03-29T06:57:02.016Z,22.10
2018-03-29T06:59:29.546Z,17.30
2018-03-29T07:01:57.879Z,20.60
2018-03-29T07:04:25.410Z,19.13
2018-03-29T07:06:52.971Z,18.50
2018-03-29T07:09:20.501Z,14.83
2018-03-29T07:11:48.818Z,20.83
2018-03-29T07:14:16.344Z,20.47
2018-03-29T07:16:44.667Z,16.90
2018-03-29T07:19:12.203Z,16.40
2018-03-29T07:21:39.793Z,13.67
2018-03-29T07:24:07.311Z,16.73
2018-03-29T07:26:34.877Z,15.07
2018-03-29T07:29:02.407Z,17.23
2018-03-29T07:31:30.730Z,14.67
2018-03-29T07:33:58.267Z,13.07
2018-03-29T07:36:25.848Z,13.80
2018-03-29T07:38:53.371Z,15.90
2018-03-29T07:41:21.690Z,14.30
2018-03-29T07:43:49.215Z,18.17
2018-03-29T07:46:17.514Z,12.23
2018-03-29T07:48:45.085Z,12.80
2018-03-29T07:51:12.627Z,13.93
2018-03-29T07:53:40.187Z,12.43
2018-03-29T07:56:07.720Z,12.20
2018-03-29T07:58:36.039Z,11.87
2018-03-29T08:01:03.562Z,11.83
2018-03-29T08:03:31.878Z,12.00
2018-03-29T08:05:59.401Z,15.50
2018-03-29T08:08:27.718Z,11.97
2018-03-29T08:10:55.242Z,12.10
2018-03-29T08:13:23.562Z,10.83
2018-03-29T08:15:51.863Z,10.83
2018-03-29T08:18:20.209Z,11.93
2018-03-29T08:20:47.742Z,14.00
2018-03-29T08:23:15.317Z,12.60
2018-03-29T08:25:42.842Z,14.83
2018-03-29T08:28:11.165Z,12.20
2018-03-29T08:30:38.698Z,9.97
2018-03-29T08:33:06.308Z,11.83
2018-03-29T08:35:33.802Z,12.70
2018-03-29T08:38:02.139Z,14.67
2018-03-29T08:40:29.672Z,11.20
2018-03-29T08:42:57.216Z,15.70
2018-03-29T08:45:24.782Z,13.73
2018-03-29T08:47:52.314Z,16.43
2018-03-29T08:50:20.646Z,13.33
2018-03-29T08:52:48.179Z,11.30
2018-03-29T08:55:15.734Z,11.77
2018-03-29T08:57:43.262Z,11.67
2018-03-29T09:00:10.810Z,12.80
2018-03-29T09:02:38.338Z,9.43
2018-03-29T09:05:05.882Z,7.70
2018-03-29T09:07:33.405Z,8.20
2018-03-29T09:10:01.718Z,6.20
2018-03-29T09:12:29.246Z,9.33
2018-03-29T09:14:57.562Z,9.60
2018-03-29T09:17:25.085Z,6.97
2018-03-29T09:19:53.399Z,6.73
2018-03-29T09:22:20.927Z,6.50
2018-03-29T09:24:49.462Z,12.17
2018-03-29T09:27:17.000Z,11.97
2018-03-29T09:29:44.526Z,8.20
2018-03-29T09:32:12.848Z,9.90
2018-03-29T09:34:40.373Z,10.80
2018-03-29T09:37:08.689Z,11.07
2018-03-29T09:39:36.219Z,8.70
2018-03-29T09:42:03.772Z,10.00
2018-03-29T09:44:31.300Z,15.23
2018-03-29T09:46:58.861Z,10.73
2018-03-29T09:49:26.388Z,9.53
2018-03-29T09:51:53.938Z,9.43
2018-03-29T09:54:21.474Z,13.73
2018-03-29T09:56:49.026Z,11.43
2018-03-29T09:59:17.316Z,8.30
2018-03-29T10:01:44.862Z,6.20
2018-03-29T10:04:13.155Z,6.53
2018-03-29T10:06:41.627Z,6.10
2018-03-29T10:09:09.153Z,6.40
2018-03-29T10:11:36.707Z,8.00
2018-03-29T10:14:04.237Z,5.90
2018-03-29T10:16:31.794Z,5.70
2018-03-29T10:18:59.330Z,5.67
2018-03-29T10:21:26.878Z,6.90
2018-03-29T10:23:55.172Z,7.80
2018-03-29T10:26:22.718Z,7.03
2018-03-29T10:28:50.250Z,6.80
2018-03-29T10:31:17.778Z,5.60
2018-03-29T10:33:45.368Z,5.87
2018-03-29T10:36:12.866Z,4.97
2018-03-29T10:38:41.178Z,5.23
2018-03-29T10:41:08.735Z,5.37
2018-03-29T10:43:36.273Z,5.97
2018-03-29T10:46:03.806Z,5.57
2018-03-29T10:48:32.119Z,4.70
2018-03-29T10:50:59.649Z,4.00
2018-03-29T10:53:27.201Z,3.17
2018-03-29T10:55:55.494Z,4.60
2018-03-29T10:58:23.056Z,3.70
2018-03-29T11:00:50.582Z,4.70
2018-03-29T11:03:18.169Z,5.10
2018-03-29T11:05:46.452Z,4.60
2018-03-29T11:08:14.007Z,5.03
2018-03-29T11:10:41.538Z,7.50
2018-03-29T11:13:09.851Z,6.50
2018-03-29T11:15:37.380Z,4.17
2018-03-29T11:18:05.702Z,5.63
2018-03-29T11:20:33.222Z,4.93
2018-03-29T11:23:01.523Z,4.70
2018-03-29T11:25:29.083Z,3.20
2018-03-29T11:27:56.611Z,5.27
2018-03-29T11:30:24.926Z,4.50
2018-03-29T11:32:52.459Z,5.50
2018-03-29T11:35:20.782Z,7.90
2018-03-29T11:37:48.307Z,6.77
2018-03-29T11:40:15.851Z,4.40
2018-03-29T11:42:44.144Z,6.00
2018-03-29T11:45:11.696Z,7.30
2018-03-29T11:47:39.232Z,6.40
2018-03-29T11:50:06.782Z,7.63
2018-03-29T11:52:34.310Z,7.60
2018-03-29T11:55:01.865Z,6.10
2018-03-29T11:57:29.398Z,7.60
2018-03-29T11:59:56.958Z,5.07
2018-03-29T12:02:24.494Z,5.20
2018-03-29T12:04:52.823Z,4.60
2018-03-29T12:07:20.383Z,6.50
2018-03-29T12:09:47.947Z,5.60
2018-03-29T12:12:15.475Z,5.33
2018-03-29T12:14:43.007Z,5.30
2018-03-29T12:17:10.562Z,6.40
2018-03-29T12:19:38.094Z,5.50
2018-03-29T12:22:05.654Z,6.70
2018-03-29T12:24:33.181Z,5.77
2018-03-29T12:27:00.739Z,7.37
2018-03-29T12:29:28.267Z,5.90
2018-03-29T12:31:55.822Z,5.23
2018-03-29T12:34:23.354Z,5.37
2018-03-29T12:36:50.909Z,7.90
2018-03-29T12:39:18.440Z,7.60
2018-03-29T12:41:45.994Z,11.70
2018-03-29T12:44:13.523Z,7.50
2018-03-29T12:46:41.076Z,7.00
2018-03-29T12:49:09.378Z,7.97
2018-03-29T12:51:37.691Z,8.33
2018-03-29T12:54:05.214Z,6.70
2018-03-29T12:56:45.492Z,8.70
2018-03-29T12:59:13.021Z,6.80
2018-03-29T13:01:41.333Z,7.20
2018-03-29T13:04:08.854Z,6.60
2018-03-29T13:06:37.190Z,7.53
2018-03-29T13:09:05.563Z,6.60
2018-03-29T13:11:33.091Z,6.13
2018-03-29T13:14:00.642Z,8.90
2018-03-29T13:16:28.934Z,6.77
2018-03-29T13:18:56.490Z,7.10
2018-03-29T13:21:24.022Z,7.00
2018-03-29T13:23:51.573Z,9.93
2018-03-29T13:26:19.111Z,5.77
2018-03-29T13:28:46.668Z,7.60
2018-03-29T13:31:14.214Z,8.83
2018-03-29T13:33:41.757Z,6.33
2018-03-29T13:36:09.287Z,6.80
2018-03-29T13:38:37.610Z,6.43
2018-03-29T13:41:05.140Z,6.50
2018-03-29T13:43:32.695Z,6.00
2018-03-29T13:46:00.986Z,7.57
2018-03-29T13:48:28.534Z,5.90
2018-03-29T13:50:56.835Z,6.00
2018-03-29T13:53:24.395Z,5.67
2018-03-29T13:55:51.937Z,6.13
2018-03-29T13:58:19.484Z,5.97
2018-03-29T14:00:47.800Z,6.30
2018-03-29T14:03:15.321Z,4.77
2018-03-29T14:05:43.643Z,5.33
2018-03-29T14:08:11.171Z,6.83
2018-03-29T14:10:38.739Z,9.10
2018-03-29T14:13:06.276Z,5.60
2018-03-29T14:15:34.598Z,3.50
2018-03-29T14:18:02.130Z,4.27
2018-03-29T14:20:29.698Z,3.83
2018-03-29T14:22:57.240Z,4.10
2018-03-29T14:25:24.814Z,3.63
2018-03-29T14:27:52.352Z,5.40
2018-03-29T14:30:20.679Z,5.53
2018-03-29T14:32:48.213Z,5.27
2018-03-29T14:35:15.768Z,4.80
2018-03-29T14:37:43.318Z,3.67
2018-03-29T14:40:10.882Z,4.57
2018-03-29T14:42:38.423Z,4.77
2018-03-29T14:45:05.981Z,5.90
2018-03-29T14:47:33.535Z,6.40
2018-03-29T14:50:01.072Z,4.27
2018-03-29T14:52:28.634Z,5.40
2018-03-29T14:54:56.167Z,5.57
2018-03-29T14:57:23.718Z,5.37
2018-03-29T14:59:51.247Z,5.57
2018-03-29T15:02:19.579Z,6.87
2018-03-29T15:04:47.273Z,16.00
2018-03-29T15:07:15.621Z,13.10
2018-03-29T15:09:43.933Z,6.27
2018-03-29T15:12:11.490Z,7.67
2018-03-29T15:14:39.014Z,5.53
2018-03-29T15:17:06.566Z,5.80
2018-03-29T15:19:34.095Z,5.20
2018-03-29T15:22:01.663Z,6.87
2018-03-29T15:24:29.190Z,7.27
2018-03-29T15:26:56.714Z,5.80
2018-03-29T15:29:24.401Z,7.07
2018-03-29T15:31:52.718Z,5.47
2018-03-29T15:34:20.266Z,5.93
2018-03-29T15:36:48.553Z,7.13
2018-03-29T15:39:16.110Z,5.20
2018-03-29T15:41:43.646Z,6.03
2018-03-29T15:44:11.203Z,5.03
2018-03-29T15:46:38.746Z,5.50
2018-03-29T15:49:06.304Z,4.50
2018-03-29T15:51:33.831Z,5.07
2018-03-29T15:54:01.396Z,6.40
2018-03-29T15:56:28.922Z,7.27
2018-03-29T15:58:57.252Z,5.63
2018-03-29T16:01:24.774Z,5.27
2018-03-29T16:03:52.334Z,4.63
2018-03-29T16:06:19.858Z,5.10
2018-03-29T16:08:47.419Z,7.40
2018-03-29T16:11:14.948Z,6.40
2018-03-29T16:13:42.510Z,6.70
2018-03-29T16:16:10.040Z,5.03
2018-03-29T16:18:37.596Z,7.67
2018-03-29T16:21:05.118Z,4.17
2018-03-29T16:23:33.424Z,4.47
2018-03-29T16:26:00.973Z,4.53
2018-03-29T16:28:29.266Z,4.60
2018-03-29T16:30:56.823Z,4.77
2018-03-29T16:33:24.369Z,7.17
2018-03-29T16:35:51.927Z,5.00
2018-03-29T16:38:20.228Z,6.13
2018-03-29T16:40:47.776Z,5.87
2018-03-29T16:43:15.307Z,4.70
2018-03-29T16:45:42.858Z,6.03
2018-03-29T16:48:10.392Z,4.83
2018-03-29T16:50:37.955Z,5.70
2018-03-29T16:53:05.478Z,5.83
2018-03-29T16:55:33.030Z,4.53
2018-03-29T16:58:00.562Z,6.20
2018-03-29T17:00:28.881Z,5.90
2018-03-29T17:02:56.415Z,8.03
2018-03-29T17:05:24.746Z,5.77
2018-03-29T17:07:53.046Z,5.90
2018-03-29T17:10:20.573Z,8.87
2018-03-29T17:12:48.121Z,8.07
2018-03-29T17:15:15.651Z,8.57
2018-03-29T17:17:43.966Z,4.70
2018-03-29T17:20:11.494Z,5.27
2018-03-29T17:22:39.814Z,5.87
2018-03-29T17:25:08.107Z,8.30
2018-03-29T17:27:35.653Z,7.57
2018-03-29T17:30:03.179Z,7.03
2018-03-29T17:32:30.734Z,8.10
2018-03-29T17:34:58.798Z,7.20
2018-03-29T17:37:26.361Z,6.10
2018-03-29T17:39:53.898Z,5.07
2018-03-29T17:42:22.242Z,5.10
2018-03-29T17:44:49.774Z,13.00
2018-03-29T17:47:17.339Z,18.50
2018-03-29T17:49:44.866Z,23.90
2018-03-29T17:52:13.198Z,12.40
2018-03-29T17:54:40.724Z,11.53
2018-03-29T17:57:08.266Z,8.10
2018-03-29T17:59:36.607Z,12.87
2018-03-29T18:02:04.176Z,7.83
2018-03-29T18:04:31.710Z,6.47
2018-03-29T18:06:59.265Z,5.67
2018-03-29T18:09:26.794Z,5.63
2018-03-29T18:11:54.318Z,5.67
2018-03-29T18:14:21.870Z,7.03
2018-03-29T18:16:49.414Z,5.30
2018-03-29T18:19:16.963Z,5.50
2018-03-29T18:21:44.492Z,6.90
2018-03-29T18:24:12.046Z,7.00
2018-03-29T18:26:39.573Z,6.43
2018-03-29T18:29:07.125Z,7.50
2018-03-29T18:31:34.658Z,7.73
2018-03-29T18:34:02.224Z,9.57
2018-03-29T18:36:29.785Z,13.87
2018-03-29T18:38:57.336Z,17.10
2018-03-29T18:41:24.871Z,8.40
2018-03-29T18:43:52.430Z,7.50
2018-03-29T18:46:19.958Z,7.53
2018-03-29T18:48:47.514Z,10.53
2018-03-29T18:51:15.046Z,7.93
2018-03-29T18:53:42.620Z,7.43
2018-03-29T18:56:10.140Z,8.83
2018-03-29T18:58:37.695Z,9.30
2018-03-29T19:01:05.231Z,11.13
2018-03-29T19:03:33.553Z,11.40
2018-03-29T19:06:01.124Z,7.80
2018-03-29T19:08:28.662Z,6.07
2018-03-29T19:10:56.219Z,8.50
2018-03-29T19:13:23.744Z,7.20
2018-03-29T19:15:52.063Z,6.80
2018-03-29T19:18:19.594Z,7.80
2018-03-29T19:20:47.914Z,8.67
2018-03-29T19:23:15.438Z,9.83
2018-03-29T19:25:42.986Z,9.67
2018-03-29T19:28:11.279Z,11.57
2018-03-29T19:30:38.830Z,9.37
2018-03-29T19:33:06.362Z,8.30
2018-03-29T19:35:33.913Z,9.30
2018-03-29T19:38:01.439Z,8.43
2018-03-29T19:40:28.989Z,8.43
2018-03-29T19:42:56.518Z,15.70
2018-03-29T19:45:24.850Z,9.73
2018-03-29T19:47:52.371Z,7.67
2018-03-29T19:50:19.936Z,11.47
2018-03-29T19:52:47.466Z,13.00
2018-03-29T19:55:15.766Z,10.67
2018-03-29T19:57:43.322Z,8.57
2018-03-29T20:00:10.859Z,9.73
2018-03-29T20:02:39.173Z,9.97
2018-03-29T20:05:06.701Z,8.37
2018-03-29T20:07:35.021Z,9.47
2018-03-29T20:10:02.558Z,7.37
2018-03-29T20:12:30.114Z,9.70
2018-03-29T20:14:57.649Z,10.30
2018-03-29T20:17:25.203Z,7.60
2018-03-29T20:19:52.731Z,8.03
2018-03-29T20:22:20.290Z,8.20
2018-03-29T20:24:47.842Z,9.90
2018-03-29T20:27:15.396Z,7.87
2018-03-29T20:29:42.926Z,7.17
2018-03-29T20:32:11.251Z,13.40
2018-03-29T20:34:38.778Z,11.83
2018-03-29T20:37:06.334Z,10.93
2018-03-29T20:39:34.004Z,8.67
2018-03-29T20:42:01.573Z,7.70
2018-03-29T20:44:29.102Z,10.10
2018-03-29T20:46:57.426Z,9.60
2018-03-29T20:49:24.958Z,10.67
2018-03-29T20:51:52.478Z,8.73
2018-03-29T20:54:20.051Z,9.90
2018-03-29T20:56:48.351Z,14.17
2018-03-29T20:59:15.906Z,9.00
2018-03-29T21:01:43.442Z,11.23
2018-03-29T21:04:11.770Z,13.80
2018-03-29T21:06:39.327Z,13.73
2018-03-29T21:09:06.891Z,8.53
2018-03-29T21:11:34.424Z,8.97
2018-03-29T21:14:02.003Z,8.30
2018-03-29T21:16:29.538Z,12.57
2018-03-29T21:18:57.103Z,20.43
2018-03-29T21:21:24.639Z,8.40
2018-03-29T21:23:53.212Z,9.70
2018-03-29T21:26:20.807Z,9.30
2018-03-29T21:28:48.457Z,10.90
2018-03-29T21:34:10.073Z,9.23
2018-03-29T21:36:37.583Z,9.30
2018-03-29T21:39:05.203Z,9.30
2018-03-29T21:41:32.810Z,12.33
2018-03-29T21:44:00.490Z,13.80
2018-03-29T21:46:28.039Z,11.53
2018-03-29T21:48:55.667Z,9.10
2018-03-29T21:51:23.217Z,9.10
2018-03-29T21:53:51.574Z,8.90
2018-03-29T21:56:19.143Z,9.57
2018-03-29T21:58:46.990Z,11.50
2018-03-29T22:01:14.600Z,11.80
2018-03-29T22:03:42.098Z,10.13
2018-03-29T22:06:09.663Z,10.67
2018-03-29T22:08:37.960Z,11.50
2018-03-29T22:11:05.513Z,11.07
2018-03-29T22:13:33.074Z,8.47
2018-03-29T22:16:00.623Z,10.03
2018-03-29T22:18:28.142Z,8.10
2018-03-29T22:20:55.735Z,8.00
2018-03-29T22:23:23.262Z,8.70
2018-03-29T22:25:50.815Z,8.93
2018-03-29T22:28:18.351Z,10.20
2018-03-29T22:30:46.676Z,9.83
2018-03-29T22:33:14.203Z,9.03
2018-03-29T22:35:42.522Z,7.63
2018-03-29T22:38:10.046Z,7.70
2018-03-29T22:40:37.611Z,8.30
2018-03-29T22:43:05.139Z,8.67
2018-03-29T22:45:32.699Z,18.67
2018-03-29T22:48:00.227Z,9.57
2018-03-29T22:50:27.750Z,8.20
2018-03-29T22:52:55.296Z,6.97
2018-03-29T22:55:23.610Z,10.10
2018-03-29T22:57:51.168Z,11.27
2018-03-29T23:00:41.489Z,9.00
2018-03-29T23:03:09.812Z,12.60
2018-03-29T23:05:38.106Z,11.23
2018-03-29T23:08:05.677Z,10.63
2018-03-29T23:10:33.214Z,10.00
2018-03-29T23:13:00.763Z,8.73
2018-03-29T23:15:29.073Z,13.27
2018-03-29T23:17:56.630Z,8.97
2018-03-29T23:20:24.153Z,8.90
2018-03-29T23:22:52.469Z,9.97
2018-03-29T23:25:20.007Z,10.80
2018-03-29T23:27:47.604Z,8.93
2018-03-29T23:30:15.128Z,13.37
2018-03-29T23:32:42.690Z,17.20
2018-03-29T23:35:10.214Z,12.67
2018-03-29T23:37:37.804Z,7.67
2018-03-29T23:40:05.507Z,8.67
2018-03-29T23:42:33.091Z,9.67
2018-03-29T23:45:01.401Z,12.57
2018-03-29T23:47:28.979Z,9.30
2018-03-29T23:49:56.516Z,10.40
2018-03-29T23:52:24.817Z,11.67
2018-03-29T23:54:52.369Z,9.30
2018-03-29T23:57:19.898Z,11.57
2018-03-29T23:59:47.475Z,11.20
